createdAt,value
2023-03-11T00:00:33.659Z,12.13
2023-03-11T00:03:01.972Z,11.67
2023-03-11T00:05:31.871Z,11.77
2023-03-11T00:07:58.399Z,11.67
2023-03-11T00:10:30.123Z,11.07
2023-03-11T00:12:57.665Z,11.70
2023-03-11T00:15:24.750Z,10.57
2023-03-11T00:17:51.978Z,9.53
2023-03-11T00:20:29.440Z,8.97
2023-03-11T00:22:57.025Z,9.37
2023-03-11T00:25:26.007Z,9.53
2023-03-11T00:27:52.469Z,9.30
2023-03-11T00:30:20.185Z,8.67
2023-03-11T00:32:52.163Z,10.03
2023-03-11T00:35:21.547Z,8.80
2023-03-11T00:37:48.450Z,7.17
2023-03-11T00:40:19.239Z,6.13
2023-03-11T00:42:46.282Z,5.70
2023-03-11T00:45:13.682Z,4.83
2023-03-11T00:47:40.238Z,4.40
2023-03-11T00:50:09.760Z,4.20
2023-03-11T00:52:36.273Z,4.17
2023-03-11T00:55:02.972Z,4.27
2023-03-11T00:57:30.373Z,3.80
2023-03-11T00:59:56.852Z,4.00
2023-03-11T01:02:24.536Z,4.17
2023-03-11T01:04:58.137Z,4.97
2023-03-11T01:07:24.687Z,4.70
2023-03-11T01:09:51.117Z,5.23
2023-03-11T01:12:17.572Z,4.93
2023-03-11T01:14:44.083Z,6.07
2023-03-11T01:17:10.557Z,5.73
2023-03-11T01:19:37.008Z,6.03
2023-03-11T01:22:03.800Z,5.83
2023-03-11T01:24:30.334Z,6.57
2023-03-11T01:26:56.986Z,6.30
2023-03-11T01:29:24.539Z,5.27
2023-03-11T01:31:50.980Z,5.67
2023-03-11T01:34:17.509Z,5.30
2023-03-11T01:36:43.942Z,5.57
2023-03-11T01:39:10.449Z,5.20
2023-03-11T01:41:37.022Z,5.27
2023-03-11T01:44:04.916Z,4.80
2023-03-11T01:46:59.621Z,5.13
2023-03-11T01:49:30.468Z,5.00
2023-03-11T01:52:03.709Z,4.90
2023-03-11T01:54:41.371Z,4.53
2023-03-11T01:57:13.280Z,5.33
2023-03-11T01:59:46.932Z,4.97
2023-03-11T02:02:23.017Z,4.70
2023-03-11T02:04:50.790Z,4.90
2023-03-11T02:07:18.034Z,4.40
2023-03-11T02:09:45.997Z,4.53
2023-03-11T02:12:14.711Z,4.50
2023-03-11T02:14:48.095Z,4.27
2023-03-11T02:17:15.122Z,4.60
2023-03-11T02:20:08.764Z,4.77
2023-03-11T02:22:35.996Z,4.33
2023-03-11T02:25:23.036Z,4.50
2023-03-11T02:27:53.290Z,4.67
2023-03-11T02:30:23.902Z,4.30
2023-03-11T02:32:51.187Z,4.10
2023-03-11T02:35:18.556Z,4.67
2023-03-11T02:37:50.431Z,4.27
2023-03-11T02:40:23.000Z,4.30
2023-03-11T02:42:55.141Z,4.60
2023-03-11T02:45:25.739Z,4.10
2023-03-11T02:47:56.752Z,3.93
2023-03-11T02:50:25.432Z,4.27
2023-03-11T02:52:52.115Z,4.80
2023-03-11T02:55:20.313Z,4.53
2023-03-11T02:57:49.944Z,4.70
2023-03-11T03:00:18.353Z,4.23
2023-03-11T03:02:54.992Z,4.53
2023-03-11T03:05:22.343Z,4.40
2023-03-11T03:07:50.854Z,3.80
2023-03-11T03:10:22.342Z,4.40
2023-03-11T03:12:49.339Z,4.30
2023-03-11T03:15:16.400Z,3.60
2023-03-11T03:17:44.681Z,3.97
2023-03-11T03:20:12.963Z,3.80
2023-03-11T03:22:43.314Z,4.03
2023-03-11T03:25:12.258Z,4.07
2023-03-11T03:27:39.249Z,3.83
2023-03-11T03:30:09.477Z,3.73
2023-03-11T03:32:37.171Z,4.00
2023-03-11T03:35:06.028Z,3.60
2023-03-11T03:37:51.699Z,3.37
2023-03-11T03:40:18.478Z,3.50
2023-03-11T03:42:44.987Z,3.00
2023-03-11T03:45:11.978Z,3.13
2023-03-11T03:47:38.636Z,3.17
2023-03-11T03:50:08.673Z,2.90
2023-03-11T03:52:37.302Z,3.40
2023-03-11T03:55:05.583Z,3.20
2023-03-11T03:57:32.421Z,3.60
2023-03-11T03:59:58.881Z,3.53
2023-03-11T04:02:26.031Z,3.47
2023-03-11T04:04:53.833Z,3.27
2023-03-11T04:07:20.349Z,3.00
2023-03-11T04:09:47.046Z,2.97
2023-03-11T04:12:17.400Z,3.00
2023-03-11T04:14:44.742Z,3.07
2023-03-11T04:17:12.669Z,3.00
2023-03-11T04:19:40.250Z,2.83
2023-03-11T04:22:07.676Z,2.70
2023-03-11T04:24:34.242Z,2.67
2023-03-11T04:27:01.326Z,2.67
2023-03-11T04:29:28.101Z,2.50
2023-03-11T04:31:55.539Z,2.50
2023-03-11T04:34:22.346Z,2.40
2023-03-11T04:36:53.122Z,2.73
2023-03-11T04:39:21.999Z,2.50
2023-03-11T04:41:48.684Z,2.50
2023-03-11T04:44:19.526Z,2.60
2023-03-11T04:46:46.332Z,2.47
2023-03-11T04:49:12.804Z,2.20
2023-03-11T04:51:40.404Z,2.10
2023-03-11T04:54:07.759Z,2.63
2023-03-11T04:56:34.464Z,2.47
2023-03-11T04:59:01.427Z,3.73
2023-03-11T05:01:29.970Z,2.30
2023-03-11T05:03:58.504Z,2.63
2023-03-11T05:06:25.236Z,2.60
2023-03-11T05:08:52.042Z,2.60
2023-03-11T05:11:18.813Z,2.50
2023-03-11T05:13:47.392Z,2.70
2023-03-11T05:16:14.298Z,3.00
2023-03-11T05:18:40.973Z,2.50
2023-03-11T05:21:07.416Z,2.40
2023-03-11T05:23:36.414Z,2.50
2023-03-11T05:26:03.142Z,2.43
2023-03-11T05:28:31.474Z,2.37
2023-03-11T05:30:58.268Z,2.57
2023-03-11T05:33:25.249Z,2.20
2023-03-11T05:35:53.445Z,2.20
2023-03-11T05:38:20.634Z,2.67
2023-03-11T05:40:47.546Z,2.00
2023-03-11T05:43:14.104Z,2.40
2023-03-11T05:45:43.521Z,2.43
2023-03-11T05:48:10.673Z,2.23
2023-03-11T05:50:38.030Z,2.10
2023-03-11T05:53:04.946Z,2.10
2023-03-11T05:55:31.931Z,2.50
2023-03-11T05:57:59.397Z,2.53
2023-03-11T06:00:29.245Z,2.00
2023-03-11T06:02:58.269Z,2.37
2023-03-11T06:05:24.783Z,2.00
2023-03-11T06:07:53.202Z,2.37
2023-03-11T06:10:21.814Z,2.40
2023-03-11T06:12:48.318Z,2.03
2023-03-11T06:15:24.723Z,2.30
2023-03-11T06:17:52.594Z,1.90
2023-03-11T06:20:19.800Z,1.83
2023-03-11T06:22:49.725Z,2.50
2023-03-11T06:25:16.896Z,2.00
2023-03-11T06:27:48.604Z,2.53
2023-03-11T06:30:15.474Z,2.00
2023-03-11T06:32:50.212Z,2.30
2023-03-11T06:35:16.704Z,2.17
2023-03-11T06:37:43.238Z,1.77
2023-03-11T06:40:11.304Z,2.20
2023-03-11T06:42:38.130Z,2.00
2023-03-11T06:45:07.542Z,1.73
2023-03-11T06:47:34.348Z,1.80
2023-03-11T06:50:06.361Z,1.73
2023-03-11T06:52:33.622Z,1.90
2023-03-11T06:55:00.204Z,2.20
2023-03-11T06:57:29.360Z,1.87
2023-03-11T06:59:57.405Z,2.50
2023-03-11T07:02:24.636Z,2.10
2023-03-11T07:04:51.201Z,1.93
2023-03-11T07:07:20.145Z,1.73
2023-03-11T07:09:46.850Z,2.10
2023-03-11T07:12:14.936Z,2.00
2023-03-11T07:14:41.725Z,1.67
2023-03-11T07:17:08.225Z,1.97
2023-03-11T07:19:41.061Z,1.73
2023-03-11T07:22:07.484Z,1.70
2023-03-11T07:24:33.876Z,1.90
2023-03-11T07:27:00.352Z,1.67
2023-03-11T07:29:27.071Z,1.83
2023-03-11T07:31:53.552Z,2.53
2023-03-11T07:34:20.172Z,2.03
2023-03-11T07:36:46.625Z,2.00
2023-03-11T07:39:16.565Z,2.00
2023-03-11T07:41:43.216Z,1.60
2023-03-11T07:44:12.216Z,1.90
2023-03-11T07:46:38.931Z,2.47
2023-03-11T07:49:05.598Z,2.03
2023-03-11T07:51:35.226Z,1.83
2023-03-11T07:54:02.178Z,2.10
2023-03-11T07:56:32.065Z,1.87
2023-03-11T07:59:00.198Z,2.73
2023-03-11T08:01:30.497Z,1.70
2023-03-11T08:03:58.734Z,1.90
2023-03-11T08:06:31.286Z,1.80
2023-03-11T08:08:59.252Z,1.80
2023-03-11T08:11:26.285Z,1.70
2023-03-11T08:13:53.872Z,2.00
2023-03-11T08:16:22.460Z,2.30
2023-03-11T08:18:51.085Z,1.97
2023-03-11T08:21:23.435Z,2.03
2023-03-11T08:23:50.610Z,2.23
2023-03-11T08:26:20.388Z,2.07
2023-03-11T08:28:46.948Z,1.90
2023-03-11T08:31:19.267Z,1.97
2023-03-11T08:33:49.844Z,1.97
2023-03-11T08:36:17.386Z,1.90
2023-03-11T08:38:43.839Z,2.37
2023-03-11T08:41:10.431Z,1.87
2023-03-11T08:43:36.880Z,1.77
2023-03-11T08:46:07.148Z,1.83
2023-03-11T08:48:34.263Z,1.97
2023-03-11T08:51:00.741Z,1.80
2023-03-11T08:53:27.366Z,1.97
2023-03-11T08:55:53.858Z,1.83
2023-03-11T08:58:20.532Z,2.10
2023-03-11T09:00:47.178Z,1.40
2023-03-11T09:03:13.695Z,1.97
2023-03-11T09:05:40.461Z,1.60
2023-03-11T09:08:07.158Z,2.43
2023-03-11T09:10:33.698Z,1.90
2023-03-11T09:13:00.321Z,2.00
2023-03-11T09:15:29.293Z,1.80
2023-03-11T09:17:56.801Z,1.70
2023-03-11T09:20:23.456Z,1.60
2023-03-11T09:22:50.159Z,1.63
2023-03-11T09:25:16.791Z,2.07
2023-03-11T09:27:43.251Z,2.03
2023-03-11T09:30:10.647Z,2.10
2023-03-11T09:32:37.333Z,2.03
2023-03-11T09:35:04.464Z,1.70
2023-03-11T09:37:31.036Z,2.20
2023-03-11T09:39:57.520Z,1.83
2023-03-11T09:42:35.772Z,1.77
2023-03-11T09:45:08.281Z,2.20
2023-03-11T09:47:45.923Z,1.83
2023-03-11T09:50:20.252Z,1.90
2023-03-11T09:53:08.786Z,1.70
2023-03-11T09:55:42.203Z,2.40
2023-03-11T09:58:36.597Z,2.20
2023-03-11T10:01:12.017Z,2.13
2023-03-11T10:03:40.048Z,2.07
2023-03-11T10:06:14.734Z,2.03
2023-03-11T10:09:13.509Z,1.80
2023-03-11T10:12:10.727Z,2.10
2023-03-11T10:15:05.989Z,2.83
2023-03-11T10:17:56.162Z,2.70
2023-03-11T10:20:30.056Z,2.20
2023-03-11T10:23:11.076Z,2.03
2023-03-11T10:25:52.451Z,2.47
2023-03-11T10:28:22.193Z,2.17
2023-03-11T10:30:56.323Z,1.90
2023-03-11T10:33:39.992Z,1.93
2023-03-11T10:36:12.553Z,1.90
2023-03-11T10:38:49.171Z,2.07
2023-03-11T10:41:21.216Z,1.80
2023-03-11T10:44:13.669Z,2.00
2023-03-11T10:46:40.108Z,2.10
2023-03-11T10:49:17.892Z,2.00
2023-03-11T10:51:47.193Z,2.00
2023-03-11T10:54:35.328Z,1.90
2023-03-11T10:57:04.709Z,1.80
2023-03-11T10:59:46.145Z,2.10
2023-03-11T11:02:33.693Z,1.77
2023-03-11T11:05:18.168Z,1.90
2023-03-11T11:07:53.040Z,2.00
2023-03-11T11:10:25.574Z,2.00
2023-03-11T11:12:57.859Z,2.10
2023-03-11T11:15:38.014Z,2.20
2023-03-11T11:18:14.699Z,2.17
2023-03-11T11:21:15.993Z,1.83
2023-03-11T11:23:52.594Z,2.47
2023-03-11T11:26:23.040Z,2.20
2023-03-11T11:29:12.291Z,2.30
2023-03-11T11:31:41.171Z,1.90
2023-03-11T11:34:29.269Z,2.30
2023-03-11T11:37:02.336Z,1.77
2023-03-11T11:39:32.934Z,2.23
2023-03-11T11:42:01.493Z,2.27
2023-03-11T11:44:33.761Z,2.07
2023-03-11T11:47:18.975Z,1.77
2023-03-11T11:49:55.338Z,1.97
2023-03-11T11:52:30.650Z,1.87
2023-03-11T11:55:04.999Z,2.33
2023-03-11T11:57:32.227Z,2.37
2023-03-11T11:59:58.760Z,2.30
2023-03-11T12:02:41.840Z,1.90
2023-03-11T12:05:11.245Z,2.07
2023-03-11T12:07:49.196Z,2.40
2023-03-11T12:10:28.585Z,2.30
2023-03-11T12:13:14.403Z,2.30
2023-03-11T12:15:46.928Z,1.90
2023-03-11T12:18:20.537Z,2.10
2023-03-11T12:20:55.072Z,2.00
2023-03-11T12:23:50.192Z,2.00
2023-03-11T12:26:21.295Z,1.97
2023-03-11T12:28:56.585Z,2.10
2023-03-11T12:31:26.698Z,2.03
2023-03-11T12:34:03.109Z,1.90
2023-03-11T12:36:35.021Z,2.20
2023-03-11T12:39:07.234Z,2.20
2023-03-11T12:41:39.912Z,2.10
2023-03-11T12:44:28.766Z,2.10
2023-03-11T12:46:58.423Z,1.80
2023-03-11T12:49:32.747Z,2.10
2023-03-11T12:52:11.495Z,1.93
2023-03-11T12:55:08.083Z,2.17
2023-03-11T12:57:48.159Z,1.80
2023-03-11T13:00:22.825Z,1.60
2023-03-11T13:02:58.648Z,1.80
2023-03-11T13:06:08.413Z,2.40
2023-03-11T13:08:44.645Z,1.60
2023-03-11T13:11:29.856Z,1.87
2023-03-11T13:14:14.820Z,1.90
2023-03-11T13:16:42.822Z,2.00
2023-03-11T13:19:27.839Z,1.80
2023-03-11T13:21:55.650Z,2.40
2023-03-11T13:24:22.065Z,1.87
2023-03-11T13:26:48.442Z,1.60
2023-03-11T13:29:52.612Z,1.80
2023-03-11T13:32:32.005Z,2.40
2023-03-11T13:35:17.974Z,2.37
2023-03-11T13:38:13.192Z,1.93
2023-03-11T13:40:42.524Z,1.70
2023-03-11T13:43:19.892Z,1.70
2023-03-11T13:45:53.142Z,1.53
2023-03-11T13:48:28.898Z,1.40
2023-03-11T13:51:30.673Z,2.00
2023-03-11T13:54:02.503Z,1.70
2023-03-11T13:56:33.005Z,1.80
2023-03-11T13:59:17.379Z,1.37
2023-03-11T14:01:51.842Z,1.70
2023-03-11T14:04:34.356Z,1.80
2023-03-11T14:07:11.889Z,1.47
2023-03-11T14:09:38.797Z,1.87
2023-03-11T14:12:10.038Z,1.33
2023-03-11T14:14:53.211Z,1.50
2023-03-11T14:17:20.984Z,1.40
2023-03-11T14:20:11.778Z,1.53
2023-03-11T14:22:38.279Z,1.60
2023-03-11T14:25:09.042Z,1.43
2023-03-11T14:27:38.485Z,1.40
2023-03-11T14:30:06.728Z,1.77
2023-03-11T14:32:34.720Z,1.37
2023-03-11T14:35:03.949Z,1.70
2023-03-11T14:37:38.374Z,1.30
2023-03-11T14:40:28.162Z,1.43
2023-03-11T14:42:58.915Z,1.63
2023-03-11T14:45:29.846Z,1.53
2023-03-11T14:48:03.364Z,1.87
2023-03-11T14:50:33.583Z,1.60
2023-03-11T14:53:12.371Z,1.77
2023-03-11T14:55:43.907Z,1.90
2023-03-11T14:58:18.565Z,1.90
2023-03-11T15:00:59.603Z,1.90
2023-03-11T15:03:32.164Z,1.50
2023-03-11T15:06:15.329Z,1.70
2023-03-11T15:08:48.352Z,1.60
2023-03-11T15:11:15.041Z,2.10
2023-03-11T15:13:44.080Z,1.90
2023-03-11T15:16:37.501Z,1.63
2023-03-11T15:19:26.075Z,2.50
2023-03-11T15:21:54.483Z,2.43
2023-03-11T15:24:32.036Z,2.00
2023-03-11T15:27:04.718Z,3.30
2023-03-11T15:29:33.756Z,7.10
2023-03-11T15:32:00.681Z,1.90
2023-03-11T15:34:32.046Z,1.60
2023-03-11T15:37:19.240Z,1.60
2023-03-11T15:39:51.080Z,1.50
2023-03-11T15:42:20.587Z,1.87
2023-03-11T15:45:15.653Z,1.50
2023-03-11T15:47:42.793Z,7.37
2023-03-11T15:50:24.189Z,8.33
2023-03-11T15:52:56.906Z,2.10
2023-03-11T15:55:25.382Z,3.63
2023-03-11T15:58:00.771Z,14.43
2023-03-11T16:00:27.276Z,3.23
2023-03-11T16:02:54.612Z,3.00
2023-03-11T16:05:23.725Z,2.00
2023-03-11T16:07:50.935Z,1.83
2023-03-11T16:10:21.129Z,1.93
2023-03-11T16:12:48.178Z,1.97
2023-03-11T16:15:28.917Z,3.43
2023-03-11T16:17:59.047Z,3.60
2023-03-11T16:20:29.202Z,3.73
2023-03-11T16:22:58.672Z,2.53
2023-03-11T16:25:36.135Z,3.13
2023-03-11T16:28:03.253Z,2.60
2023-03-11T16:30:31.507Z,2.43
2023-03-11T16:32:58.634Z,2.53
2023-03-11T16:35:25.670Z,2.87
2023-03-11T16:37:52.538Z,4.07
2023-03-11T16:40:21.729Z,2.80
2023-03-11T16:42:49.085Z,3.43
2023-03-11T16:45:18.090Z,4.47
2023-03-11T16:47:44.567Z,3.27
2023-03-11T16:50:11.613Z,4.77
2023-03-11T16:52:38.468Z,2.70
2023-03-11T16:55:05.553Z,2.10
2023-03-11T16:57:32.148Z,3.80
2023-03-11T16:59:58.882Z,2.10
2023-03-11T17:02:25.608Z,1.83
2023-03-11T17:04:52.135Z,2.67
2023-03-11T17:07:18.670Z,1.57
2023-03-11T17:09:45.309Z,2.30
2023-03-11T17:12:15.570Z,1.90
2023-03-11T17:14:42.364Z,2.03
2023-03-11T17:17:09.223Z,1.93
2023-03-11T17:19:35.809Z,1.83
2023-03-11T17:22:05.108Z,2.30
2023-03-11T17:24:32.401Z,1.90
2023-03-11T17:26:58.940Z,1.93
2023-03-11T17:29:25.583Z,2.97
2023-03-11T17:31:52.091Z,2.40
2023-03-11T17:34:18.578Z,2.20
2023-03-11T17:36:45.085Z,11.63
2023-03-11T17:39:11.548Z,5.10
2023-03-11T17:41:38.065Z,8.50
2023-03-11T17:44:04.939Z,5.80
2023-03-11T17:46:32.053Z,7.53
2023-03-11T17:48:59.379Z,5.70
2023-03-11T17:51:26.725Z,3.33
2023-03-11T17:53:55.416Z,3.13
2023-03-11T17:56:22.777Z,3.27
2023-03-11T17:58:50.475Z,3.23
2023-03-11T18:01:20.616Z,4.97
2023-03-11T18:03:47.348Z,3.50
2023-03-11T18:06:14.980Z,2.50
2023-03-11T18:08:41.858Z,2.53
2023-03-11T18:11:13.653Z,2.33
2023-03-11T18:13:40.889Z,2.30
2023-03-11T18:16:10.977Z,3.17
2023-03-11T18:18:37.817Z,2.70
2023-03-11T18:21:06.254Z,2.83
2023-03-11T18:23:34.079Z,3.10
2023-03-11T18:26:03.349Z,2.40
2023-03-11T18:28:30.045Z,2.87
2023-03-11T18:31:05.550Z,2.13
2023-03-11T18:33:32.107Z,2.70
2023-03-11T18:35:58.792Z,2.80
2023-03-11T18:38:25.490Z,3.00
2023-03-11T18:40:58.189Z,2.80
2023-03-11T18:43:25.418Z,2.90
2023-03-11T18:45:51.948Z,2.30
2023-03-11T18:48:18.434Z,2.47
2023-03-11T18:50:51.486Z,2.87
2023-03-11T18:53:18.149Z,3.00
2023-03-11T18:55:44.581Z,3.87
2023-03-11T18:58:11.220Z,3.17
2023-03-11T19:00:37.737Z,3.50
2023-03-11T19:03:04.209Z,3.17
2023-03-11T19:05:30.771Z,3.07
2023-03-11T19:07:57.323Z,3.40
2023-03-11T19:10:23.752Z,3.60
2023-03-11T19:12:50.761Z,3.60
2023-03-11T19:15:17.802Z,4.03
2023-03-11T19:17:46.634Z,3.83
2023-03-11T19:20:19.124Z,4.63
2023-03-11T19:22:45.578Z,3.90
2023-03-11T19:25:12.048Z,4.50
2023-03-11T19:27:40.140Z,4.07
2023-03-11T19:30:09.758Z,4.50
2023-03-11T19:32:36.255Z,5.10
2023-03-11T19:35:02.728Z,5.83
2023-03-11T19:37:30.981Z,4.77
2023-03-11T19:39:58.038Z,5.33
2023-03-11T19:42:25.980Z,5.83
2023-03-11T19:44:54.252Z,5.20
2023-03-11T19:47:20.698Z,4.60
2023-03-11T19:49:47.190Z,4.97
2023-03-11T19:52:13.733Z,4.80
2023-03-11T19:54:40.175Z,5.07
2023-03-11T19:57:06.641Z,4.43
2023-03-11T19:59:34.545Z,4.70
2023-03-11T20:02:01.706Z,4.47
2023-03-11T20:04:28.986Z,4.33
2023-03-11T20:06:55.997Z,4.10
2023-03-11T20:09:22.644Z,4.20
2023-03-11T20:11:49.075Z,4.50
2023-03-11T20:14:15.614Z,3.73
2023-03-11T20:16:42.190Z,4.93
2023-03-11T20:19:08.833Z,3.70
2023-03-11T20:21:39.262Z,4.20
2023-03-11T20:24:06.680Z,4.03
2023-03-11T20:26:33.383Z,4.43
2023-03-11T20:29:00.193Z,4.93
2023-03-11T20:31:28.303Z,4.67
2023-03-11T20:33:56.057Z,4.20
2023-03-11T20:36:25.748Z,4.80
2023-03-11T20:38:53.753Z,4.70
2023-03-11T20:41:23.157Z,4.20
2023-03-11T20:43:54.978Z,4.20
2023-03-11T20:46:21.972Z,3.80
2023-03-11T20:48:48.531Z,4.23
2023-03-11T20:51:19.469Z,4.40
2023-03-11T20:53:47.203Z,4.40
2023-03-11T20:56:16.760Z,4.13
2023-03-11T20:58:44.528Z,4.63
2023-03-11T21:01:28.714Z,5.13
2023-03-11T21:04:01.410Z,5.77
2023-03-11T21:06:47.229Z,4.60
2023-03-11T21:09:14.656Z,4.20
2023-03-11T21:11:41.596Z,4.30
2023-03-11T21:14:08.764Z,4.60
2023-03-11T21:16:37.202Z,4.50
2023-03-11T21:19:08.498Z,4.97
2023-03-11T21:21:35.300Z,4.83
2023-03-11T21:24:02.227Z,5.00
2023-03-11T21:26:28.795Z,5.77
2023-03-11T21:28:55.946Z,5.17
2023-03-11T21:31:25.968Z,10.67
2023-03-11T21:33:56.863Z,7.13
2023-03-11T21:36:24.077Z,7.80
2023-03-11T21:38:51.474Z,7.70
2023-03-11T21:41:21.231Z,7.40
2023-03-11T21:43:48.122Z,6.77
2023-03-11T21:46:17.861Z,7.17
2023-03-11T21:48:45.235Z,7.30
2023-03-11T21:51:12.178Z,5.70
2023-03-11T21:53:38.878Z,5.97
2023-03-11T21:56:05.834Z,5.43
2023-03-11T21:58:33.469Z,5.80
2023-03-11T22:01:00.667Z,4.90
2023-03-11T22:03:28.137Z,4.90
2023-03-11T22:05:58.935Z,3.23
2023-03-11T22:08:26.097Z,4.10
2023-03-11T22:10:52.910Z,3.73
2023-03-11T22:13:19.638Z,3.43
2023-03-11T22:15:48.661Z,3.83
2023-03-11T22:18:15.133Z,3.73
2023-03-11T22:20:42.623Z,3.50
2023-03-11T22:23:09.658Z,3.30
2023-03-11T22:25:36.861Z,3.90
2023-03-11T22:28:04.181Z,3.60
2023-03-11T22:30:30.778Z,3.43
2023-03-11T22:32:57.259Z,3.70
2023-03-11T22:35:23.702Z,3.60
2023-03-11T22:37:50.203Z,3.83
2023-03-11T22:40:16.674Z,3.77
2023-03-11T22:42:43.222Z,3.80
2023-03-11T22:45:10.076Z,3.43
2023-03-11T22:47:36.627Z,4.27
2023-03-11T22:50:04.078Z,4.00
2023-03-11T22:52:30.706Z,4.07
2023-03-11T22:54:57.455Z,4.43
2023-03-11T22:57:24.149Z,4.30
2023-03-11T22:59:50.543Z,3.90
2023-03-11T23:02:16.961Z,3.63
2023-03-11T23:04:45.729Z,4.13
2023-03-11T23:07:12.759Z,4.20
2023-03-11T23:10:12.690Z,3.90
2023-03-11T23:12:39.565Z,3.40
2023-03-11T23:18:00.101Z,3.33
2023-03-11T23:20:27.148Z,3.30
2023-03-11T23:22:53.643Z,3.43
2023-03-11T23:25:20.200Z,3.37
2023-03-11T23:27:46.953Z,3.20
2023-03-11T23:30:16.246Z,3.70
2023-03-11T23:32:43.825Z,3.63
2023-03-11T23:35:11.323Z,3.97
2023-03-11T23:37:38.476Z,4.23
2023-03-11T23:40:07.107Z,4.13
2023-03-11T23:42:35.140Z,4.13
2023-03-11T23:45:01.886Z,4.10
2023-03-11T23:47:28.712Z,3.90
2023-03-11T23:49:55.171Z,3.60
2023-03-11T23:52:21.739Z,3.87
2023-03-11T23:54:48.236Z,4.10
2023-03-11T23:57:14.682Z,4.37
2023-03-11T23:59:41.130Z,4.20
